BAW814L EGLL-EKCH
Flight info
| Callsign | BAW814L |
|---|---|
| Flight time | 1h 38m |
| Altitude | 35000 |
| Route | BPK Q295 PAAVO M604 GIVPO DCT VENAS DCT LARGA DCT SOPTO DCT DOREV DCT TESPI |
| Aircraft | A21N/M-SDE3FGHIRWY/LB1 |
Departure
| Time | 2026-04-21 17:08 |
|---|---|
| Airport | London Heathrow Airport (EGLL) |
Arrival
| Time | 2026-04-21 18:46 |
|---|---|
| Airport | Copenhagen Kastrup Airport (EKCH) |
| Time | Latitude | Longitude | Altitude | Speed | Heading |
|---|---|---|---|---|---|
| 2026-04-21 16:27 | 51.47188 | -0.48589 | 83 ft | 0 kts | 270° |
| 2026-04-21 16:56 | 51.47188 | -0.48567 | 83 ft | 2 kts | 270° |
| 2026-04-21 16:57 | 51.47188 | -0.48543 | 83 ft | 2 kts | 270° |
| 2026-04-21 16:57 | 51.47188 | -0.48519 | 83 ft | 2 kts | 270° |
| 2026-04-21 16:57 | 51.47188 | -0.48503 | 83 ft | 2 kts | 262° |
| 2026-04-21 16:57 | 51.47195 | -0.48483 | 83 ft | 2 kts | 219° |
| 2026-04-21 16:58 | 51.47208 | -0.48473 | 83 ft | 1 kts | 185° |
| 2026-04-21 16:58 | 51.47213 | -0.48473 | 83 ft | 1 kts | 175° |
| 2026-04-21 16:58 | 51.47217 | -0.48473 | 83 ft | 0 kts | 179° |
| 2026-04-21 17:00 | 51.47211 | -0.48473 | 83 ft | 1 kts | 179° |
| 2026-04-21 17:01 | 51.47183 | -0.48473 | 83 ft | 7 kts | 181° |
| 2026-04-21 17:01 | 51.47102 | -0.48473 | 83 ft | 14 kts | 180° |
| 2026-04-21 17:01 | 51.46995 | -0.48472 | 83 ft | 15 kts | 180° |
| 2026-04-21 17:01 | 51.46892 | -0.48469 | 83 ft | 14 kts | 179° |
| 2026-04-21 17:02 | 51.46791 | -0.48474 | 83 ft | 13 kts | 176° |
| 2026-04-21 17:02 | 51.46715 | -0.48469 | 83 ft | 8 kts | 180° |
| 2026-04-21 17:02 | 51.46685 | -0.48468 | 83 ft | 0 kts | 179° |
| 2026-04-21 17:03 | 51.46678 | -0.48468 | 83 ft | 1 kts | 179° |
| 2026-04-21 17:03 | 51.46663 | -0.48468 | 83 ft | 2 kts | 179° |
| 2026-04-21 17:03 | 51.46651 | -0.48467 | 83 ft | 0 kts | 180° |
| 2026-04-21 17:04 | 51.46649 | -0.48467 | 83 ft | 0 kts | 180° |
| 2026-04-21 17:04 | 51.46639 | -0.48467 | 83 ft | 2 kts | 179° |
| 2026-04-21 17:04 | 51.46621 | -0.48467 | 83 ft | 3 kts | 180° |
| 2026-04-21 17:05 | 51.46594 | -0.48467 | 83 ft | 4 kts | 180° |
| 2026-04-21 17:05 | 51.46561 | -0.48467 | 83 ft | 4 kts | 179° |
| 2026-04-21 17:05 | 51.46542 | -0.48466 | 83 ft | 2 kts | 179° |
| 2026-04-21 17:05 | 51.46518 | -0.48465 | 83 ft | 3 kts | 179° |
| 2026-04-21 17:06 | 51.46489 | -0.48460 | 83 ft | 4 kts | 158° |
| 2026-04-21 17:06 | 51.46480 | -0.48437 | 83 ft | 0 kts | 94° |
| 2026-04-21 17:06 | 51.46480 | -0.48435 | 83 ft | 0 kts | 94° |
| 2026-04-21 17:07 | 51.46479 | -0.48384 | 83 ft | 24 kts | 91° |
| 2026-04-21 17:07 | 51.46482 | -0.47685 | 83 ft | 98 kts | 89° |
| 2026-04-21 17:07 | 51.46486 | -0.46259 | 84 ft | 156 kts | 89° |
| 2026-04-21 17:07 | 51.46498 | -0.44370 | 476 ft | 173 kts | 88° |
| 2026-04-21 17:08 | 51.46517 | -0.42533 | 1387 ft | 165 kts | 85° |
| 2026-04-21 17:08 | 51.46797 | -0.40856 | 2187 ft | 163 kts | 60° |
| 2026-04-21 17:08 | 51.47564 | -0.39345 | 2647 ft | 185 kts | 52° |
| 2026-04-21 17:08 | 51.48440 | -0.37725 | 3197 ft | 202 kts | 53° |
| 2026-04-21 17:09 | 51.50412 | -0.33998 | 4346 ft | 237 kts | 53° |
| 2026-04-21 17:09 | 51.51479 | -0.31968 | 5104 ft | 244 kts | 53° |
| 2026-04-21 17:09 | 51.52476 | -0.29763 | 5653 ft | 244 kts | 66° |
| 2026-04-21 17:10 | 51.53063 | -0.27210 | 5952 ft | 245 kts | 73° |
| 2026-04-21 17:10 | 51.53550 | -0.24626 | 5976 ft | 244 kts | 74° |
| 2026-04-21 17:10 | 51.54057 | -0.22013 | 5980 ft | 244 kts | 73° |
| 2026-04-21 17:10 | 51.54770 | -0.19576 | 5965 ft | 247 kts | 52° |
| 2026-04-21 17:11 | 51.56163 | -0.17910 | 5980 ft | 255 kts | 26° |
| 2026-04-21 17:11 | 51.57922 | -0.17408 | 5988 ft | 265 kts | 5° |
| 2026-04-21 17:11 | 51.59768 | -0.17351 | 5979 ft | 261 kts | 14° |
| 2026-04-21 17:11 | 51.61516 | -0.16706 | 5981 ft | 259 kts | 19° |
| 2026-04-21 17:12 | 51.63280 | -0.15985 | 5975 ft | 259 kts | 20° |
| 2026-04-21 17:12 | 51.65021 | -0.15237 | 5981 ft | 259 kts | 20° |
| 2026-04-21 17:12 | 51.66742 | -0.14470 | 5984 ft | 258 kts | 21° |
| 2026-04-21 17:12 | 51.68478 | -0.13682 | 5987 ft | 257 kts | 21° |
| 2026-04-21 17:13 | 51.70182 | -0.12899 | 5999 ft | 257 kts | 21° |
| 2026-04-21 17:13 | 51.71892 | -0.12109 | 5967 ft | 257 kts | 21° |
| 2026-04-21 17:13 | 51.73587 | -0.11142 | 5982 ft | 252 kts | 35° |
| 2026-04-21 17:13 | 51.74794 | -0.09224 | 5997 ft | 245 kts | 61° |
| 2026-04-21 17:14 | 51.75333 | -0.06630 | 6304 ft | 252 kts | 82° |
| 2026-04-21 17:14 | 51.75537 | -0.03856 | 7305 ft | 251 kts | 82° |
| 2026-04-21 17:14 | 51.75772 | -0.01077 | 8145 ft | 252 kts | 82° |
| 2026-04-21 17:14 | 51.76014 | 0.01747 | 8928 ft | 257 kts | 82° |
| 2026-04-21 17:15 | 51.76253 | 0.04583 | 9690 ft | 261 kts | 82° |
| 2026-04-21 17:15 | 51.76496 | 0.07488 | 10380 ft | 265 kts | 82° |
| 2026-04-21 17:15 | 51.76741 | 0.10460 | 10952 ft | 275 kts | 82° |
| 2026-04-21 17:15 | 51.76999 | 0.13599 | 11303 ft | 292 kts | 82° |
| 2026-04-21 17:16 | 51.77275 | 0.16967 | 11615 ft | 310 kts | 82° |
| 2026-04-21 17:16 | 51.77564 | 0.20506 | 11932 ft | 327 kts | 82° |
| 2026-04-21 17:16 | 51.77864 | 0.24195 | 12208 ft | 342 kts | 82° |
| 2026-04-21 17:16 | 51.78176 | 0.28028 | 12790 ft | 349 kts | 82° |
| 2026-04-21 17:17 | 51.78490 | 0.31932 | 13493 ft | 352 kts | 82° |
| 2026-04-21 17:17 | 51.78805 | 0.35847 | 14123 ft | 356 kts | 82° |
| 2026-04-21 17:17 | 51.79125 | 0.39849 | 14775 ft | 361 kts | 82° |
| 2026-04-21 17:17 | 51.79446 | 0.43885 | 15400 ft | 365 kts | 82° |
| 2026-04-21 17:18 | 51.79769 | 0.47955 | 16029 ft | 369 kts | 82° |
| 2026-04-21 17:18 | 51.80091 | 0.52048 | 16563 ft | 373 kts | 82° |
| 2026-04-21 17:18 | 51.80419 | 0.56231 | 17188 ft | 377 kts | 82° |
| 2026-04-21 17:18 | 51.80759 | 0.60381 | 17791 ft | 380 kts | 80° |
| 2026-04-21 17:19 | 51.81293 | 0.64588 | 18348 ft | 383 kts | 75° |
| 2026-04-21 17:19 | 51.82072 | 0.68714 | 18882 ft | 387 kts | 70° |
| 2026-04-21 17:19 | 51.83065 | 0.72779 | 19411 ft | 391 kts | 67° |
| 2026-04-21 17:19 | 51.84124 | 0.76843 | 19920 ft | 394 kts | 66° |
| 2026-04-21 17:20 | 51.85224 | 0.80925 | 20414 ft | 397 kts | 63° |
| 2026-04-21 17:20 | 51.86612 | 0.84745 | 20913 ft | 400 kts | 54° |
| 2026-04-21 17:20 | 51.88361 | 0.88230 | 21406 ft | 402 kts | 46° |
| 2026-04-21 17:20 | 51.90399 | 0.91379 | 21900 ft | 404 kts | 41° |
| 2026-04-21 17:21 | 51.92475 | 0.94391 | 22373 ft | 407 kts | 41° |
| 2026-04-21 17:21 | 51.94604 | 0.97447 | 22844 ft | 410 kts | 41° |
| 2026-04-21 17:21 | 51.96732 | 1.00518 | 23279 ft | 413 kts | 41° |
| 2026-04-21 17:21 | 51.98883 | 1.03643 | 23667 ft | 417 kts | 41° |
| 2026-04-21 17:22 | 52.01046 | 1.06803 | 24078 ft | 420 kts | 41° |
| 2026-04-21 17:22 | 52.03220 | 1.09988 | 24488 ft | 423 kts | 41° |
| 2026-04-21 17:22 | 52.05425 | 1.13059 | 24864 ft | 425 kts | 38° |
| 2026-04-21 17:22 | 52.07756 | 1.16009 | 25248 ft | 427 kts | 36° |
| 2026-04-21 17:23 | 52.10121 | 1.18899 | 25605 ft | 429 kts | 35° |
| 2026-04-21 17:23 | 52.12528 | 1.21915 | 25962 ft | 431 kts | 37° |
| 2026-04-21 17:23 | 52.14826 | 1.24976 | 26300 ft | 434 kts | 37° |
| 2026-04-21 17:23 | 52.17152 | 1.28123 | 26650 ft | 435 kts | 37° |
| 2026-04-21 17:24 | 52.19478 | 1.31286 | 26989 ft | 437 kts | 37° |
| 2026-04-21 17:24 | 52.21815 | 1.34471 | 27354 ft | 438 kts | 37° |
| 2026-04-21 17:24 | 52.24111 | 1.37602 | 27804 ft | 436 kts | 37° |
| 2026-04-21 17:24 | 52.26426 | 1.40760 | 28255 ft | 435 kts | 37° |
| 2026-04-21 17:25 | 52.28735 | 1.43909 | 28702 ft | 433 kts | 37° |
| 2026-04-21 17:25 | 52.31032 | 1.47053 | 29129 ft | 431 kts | 37° |
| 2026-04-21 17:25 | 52.33286 | 1.50259 | 29537 ft | 431 kts | 39° |
| 2026-04-21 17:25 | 52.35435 | 1.53651 | 29924 ft | 431 kts | 41° |
| 2026-04-21 17:26 | 52.37534 | 1.57134 | 30330 ft | 430 kts | 42° |
| 2026-04-21 17:26 | 52.39612 | 1.60627 | 30729 ft | 428 kts | 42° |
| 2026-04-21 17:26 | 52.41694 | 1.64139 | 31103 ft | 427 kts | 42° |
| 2026-04-21 17:26 | 52.43759 | 1.67625 | 31412 ft | 426 kts | 43° |
| 2026-04-21 17:27 | 52.45808 | 1.71086 | 31683 ft | 426 kts | 43° |
| 2026-04-21 17:27 | 52.47879 | 1.74589 | 31943 ft | 426 kts | 43° |
| 2026-04-21 17:27 | 52.49921 | 1.78043 | 32194 ft | 426 kts | 43° |
| 2026-04-21 17:27 | 52.51992 | 1.81552 | 32445 ft | 426 kts | 43° |
| 2026-04-21 17:28 | 52.54039 | 1.85030 | 32694 ft | 426 kts | 43° |
| 2026-04-21 17:28 | 52.56078 | 1.88494 | 32926 ft | 426 kts | 43° |
| 2026-04-21 17:28 | 52.58143 | 1.92011 | 33147 ft | 426 kts | 43° |
| 2026-04-21 17:28 | 52.60179 | 1.95476 | 33378 ft | 426 kts | 43° |
| 2026-04-21 17:29 | 52.62246 | 1.98995 | 33601 ft | 426 kts | 44° |
| 2026-04-21 17:29 | 52.64284 | 2.02479 | 33751 ft | 427 kts | 43° |
| 2026-04-21 17:29 | 52.66348 | 2.06012 | 33888 ft | 428 kts | 44° |
| 2026-04-21 17:29 | 52.68413 | 2.09550 | 34025 ft | 429 kts | 44° |
| 2026-04-21 17:30 | 52.70489 | 2.13113 | 34163 ft | 430 kts | 44° |
| 2026-04-21 17:30 | 52.72554 | 2.16663 | 34299 ft | 431 kts | 44° |
| 2026-04-21 17:30 | 52.74616 | 2.20215 | 34442 ft | 431 kts | 43° |
| 2026-04-21 17:30 | 52.76705 | 2.23816 | 34595 ft | 432 kts | 44° |
| 2026-04-21 17:31 | 52.78752 | 2.27347 | 34740 ft | 433 kts | 44° |
| 2026-04-21 17:31 | 52.80852 | 2.30978 | 34876 ft | 433 kts | 44° |
| 2026-04-21 17:31 | 52.82926 | 2.34569 | 35011 ft | 434 kts | 44° |
| 2026-04-21 17:31 | 52.85005 | 2.38173 | 35138 ft | 434 kts | 44° |
| 2026-04-21 17:32 | 52.87114 | 2.41838 | 35262 ft | 435 kts | 44° |
| 2026-04-21 17:32 | 52.89218 | 2.45501 | 35344 ft | 437 kts | 44° |
| 2026-04-21 17:32 | 52.93402 | 2.52710 | 35344 ft | 436 kts | 42° |
| 2026-04-21 17:33 | 52.97951 | 2.59344 | 35353 ft | 435 kts | 36° |
| 2026-04-21 17:33 | 53.02859 | 2.65053 | 35370 ft | 434 kts | 31° |
| 2026-04-21 17:34 | 53.08176 | 2.69926 | 35374 ft | 434 kts | 26° |
| 2026-04-21 17:34 | 53.13548 | 2.74372 | 35380 ft | 434 kts | 26° |
| 2026-04-21 17:35 | 53.18955 | 2.78846 | 35387 ft | 434 kts | 26° |
| 2026-04-21 17:35 | 53.23987 | 2.83036 | 35381 ft | 434 kts | 26° |
| 2026-04-21 17:36 | 53.29385 | 2.87475 | 35393 ft | 434 kts | 25° |
| 2026-04-21 17:36 | 53.34893 | 2.91631 | 35402 ft | 433 kts | 24° |
| 2026-04-21 17:37 | 53.40374 | 2.95734 | 35395 ft | 433 kts | 24° |
| 2026-04-21 17:37 | 53.45887 | 2.99880 | 35410 ft | 433 kts | 24° |
| 2026-04-21 17:38 | 53.51383 | 3.04032 | 35410 ft | 434 kts | 25° |
| 2026-04-21 17:38 | 53.56842 | 3.08166 | 35415 ft | 433 kts | 25° |
| 2026-04-21 17:39 | 53.62329 | 3.12337 | 35392 ft | 433 kts | 25° |
| 2026-04-21 17:39 | 53.67823 | 3.16524 | 35414 ft | 434 kts | 25° |
| 2026-04-21 17:40 | 53.73296 | 3.20706 | 35401 ft | 434 kts | 25° |
| 2026-04-21 17:40 | 53.78767 | 3.24905 | 35402 ft | 434 kts | 25° |
| 2026-04-21 17:41 | 53.84250 | 3.29118 | 35397 ft | 434 kts | 25° |
| 2026-04-21 17:41 | 53.89750 | 3.33358 | 35409 ft | 435 kts | 26° |
| 2026-04-21 17:42 | 53.95242 | 3.37605 | 35400 ft | 435 kts | 26° |
| 2026-04-21 17:42 | 54.00751 | 3.41876 | 35409 ft | 436 kts | 26° |
| 2026-04-21 17:43 | 54.06242 | 3.46149 | 35397 ft | 436 kts | 26° |
| 2026-04-21 17:43 | 54.11735 | 3.50433 | 35400 ft | 436 kts | 26° |
| 2026-04-21 17:44 | 54.17229 | 3.54731 | 35407 ft | 437 kts | 26° |
| 2026-04-21 17:44 | 54.22732 | 3.59051 | 35402 ft | 437 kts | 26° |
| 2026-04-21 17:45 | 54.28227 | 3.63375 | 35407 ft | 438 kts | 26° |
| 2026-04-21 17:45 | 54.33688 | 3.67949 | 35407 ft | 437 kts | 30° |
| 2026-04-21 17:46 | 54.39076 | 3.72735 | 35413 ft | 437 kts | 30° |
| 2026-04-21 17:46 | 54.44461 | 3.77538 | 35425 ft | 438 kts | 30° |
| 2026-04-21 17:47 | 54.49868 | 3.82366 | 35426 ft | 438 kts | 30° |
| 2026-04-21 17:47 | 54.55233 | 3.87168 | 35423 ft | 438 kts | 30° |
| 2026-04-21 17:48 | 54.60636 | 3.92014 | 35427 ft | 439 kts | 30° |
| 2026-04-21 17:48 | 54.66029 | 3.96864 | 35427 ft | 440 kts | 30° |
| 2026-04-21 17:49 | 54.71466 | 4.01776 | 35422 ft | 440 kts | 30° |
| 2026-04-21 17:49 | 54.76873 | 4.06671 | 35432 ft | 441 kts | 30° |
| 2026-04-21 17:50 | 54.82156 | 4.11866 | 35437 ft | 439 kts | 35° |
| 2026-04-21 17:50 | 54.87069 | 4.18035 | 35431 ft | 437 kts | 41° |
| 2026-04-21 17:51 | 54.91526 | 4.25108 | 35434 ft | 435 kts | 48° |
| 2026-04-21 17:51 | 54.95645 | 4.32804 | 35432 ft | 435 kts | 50° |
| 2026-04-21 17:52 | 54.99699 | 4.40531 | 35439 ft | 435 kts | 50° |
| 2026-04-21 17:52 | 55.03758 | 4.48275 | 35438 ft | 435 kts | 50° |
| 2026-04-21 17:53 | 55.07811 | 4.56022 | 35439 ft | 435 kts | 50° |
| 2026-04-21 17:53 | 55.11875 | 4.63816 | 35434 ft | 435 kts | 50° |
| 2026-04-21 17:54 | 55.15922 | 4.71596 | 35430 ft | 434 kts | 51° |
| 2026-04-21 17:54 | 55.19953 | 4.79375 | 35427 ft | 435 kts | 51° |
| 2026-04-21 17:55 | 55.24010 | 4.87231 | 35426 ft | 435 kts | 51° |
| 2026-04-21 17:55 | 55.27626 | 4.95584 | 35423 ft | 431 kts | 61° |
| 2026-04-21 17:56 | 55.30187 | 5.04967 | 35422 ft | 426 kts | 75° |
| 2026-04-21 17:56 | 55.31615 | 5.14989 | 35421 ft | 425 kts | 79° |
| 2026-04-21 17:57 | 55.32925 | 5.25087 | 35415 ft | 424 kts | 79° |
| 2026-04-21 17:57 | 55.34223 | 5.35107 | 35416 ft | 425 kts | 79° |
| 2026-04-21 17:58 | 55.35529 | 5.45200 | 35410 ft | 424 kts | 79° |
| 2026-04-21 17:58 | 55.36826 | 5.55263 | 35413 ft | 424 kts | 79° |
| 2026-04-21 17:59 | 55.38113 | 5.65327 | 35412 ft | 424 kts | 79° |
| 2026-04-21 17:59 | 55.39393 | 5.75414 | 35399 ft | 424 kts | 79° |
| 2026-04-21 18:00 | 55.40669 | 5.85521 | 35409 ft | 424 kts | 79° |
| 2026-04-21 18:00 | 55.41925 | 5.95561 | 35414 ft | 424 kts | 79° |
| 2026-04-21 18:01 | 55.43190 | 6.05725 | 35424 ft | 424 kts | 79° |
| 2026-04-21 18:01 | 55.44434 | 6.15799 | 35428 ft | 423 kts | 79° |
| 2026-04-21 18:02 | 55.45665 | 6.25835 | 35430 ft | 423 kts | 79° |
| 2026-04-21 18:02 | 55.46896 | 6.35949 | 35427 ft | 423 kts | 79° |
| 2026-04-21 18:03 | 55.48120 | 6.46087 | 35420 ft | 423 kts | 79° |
| 2026-04-21 18:03 | 55.49334 | 6.56217 | 35415 ft | 423 kts | 79° |
| 2026-04-21 18:04 | 55.50532 | 6.66295 | 35413 ft | 422 kts | 79° |
| 2026-04-21 18:04 | 55.51734 | 6.76477 | 35412 ft | 423 kts | 79° |
| 2026-04-21 18:05 | 55.52922 | 6.86611 | 35410 ft | 422 kts | 79° |
| 2026-04-21 18:05 | 55.54093 | 6.96679 | 35408 ft | 422 kts | 79° |
| 2026-04-21 18:06 | 55.55260 | 7.06795 | 35401 ft | 422 kts | 79° |
| 2026-04-21 18:06 | 55.56414 | 7.16865 | 35398 ft | 421 kts | 79° |
| 2026-04-21 18:07 | 55.57565 | 7.27009 | 35396 ft | 421 kts | 79° |
| 2026-04-21 18:07 | 55.58699 | 7.37065 | 35397 ft | 421 kts | 79° |
| 2026-04-21 18:08 | 55.59831 | 7.47188 | 35397 ft | 420 kts | 79° |
| 2026-04-21 18:08 | 55.60949 | 7.57259 | 35394 ft | 419 kts | 79° |
| 2026-04-21 18:09 | 55.62065 | 7.67399 | 35393 ft | 420 kts | 79° |
| 2026-04-21 18:09 | 55.63176 | 7.77576 | 35393 ft | 420 kts | 79° |
| 2026-04-21 18:10 | 55.64267 | 7.87637 | 35389 ft | 419 kts | 79° |
| 2026-04-21 18:10 | 55.65353 | 7.97748 | 35389 ft | 419 kts | 79° |
| 2026-04-21 18:11 | 55.66429 | 8.07848 | 35388 ft | 419 kts | 79° |
| 2026-04-21 18:11 | 55.67499 | 8.17976 | 35387 ft | 419 kts | 79° |
| 2026-04-21 18:12 | 55.68555 | 8.28056 | 35385 ft | 419 kts | 79° |
| 2026-04-21 18:12 | 55.69606 | 8.38169 | 35385 ft | 418 kts | 79° |
| 2026-04-21 18:13 | 55.70649 | 8.48292 | 35382 ft | 418 kts | 79° |
| 2026-04-21 18:13 | 55.71681 | 8.58374 | 35375 ft | 417 kts | 79° |
| 2026-04-21 18:14 | 55.73159 | 8.73022 | 35371 ft | 417 kts | 79° |
| 2026-04-21 18:15 | 55.74166 | 8.83095 | 35372 ft | 416 kts | 79° |
| 2026-04-21 18:15 | 55.75170 | 8.93208 | 35374 ft | 416 kts | 79° |
| 2026-04-21 18:16 | 55.76162 | 9.03306 | 35368 ft | 416 kts | 79° |
| 2026-04-21 18:16 | 55.77147 | 9.13404 | 35376 ft | 416 kts | 79° |
| 2026-04-21 18:17 | 55.78125 | 9.23541 | 35371 ft | 415 kts | 79° |
| 2026-04-21 18:17 | 55.79087 | 9.33610 | 35373 ft | 415 kts | 79° |
| 2026-04-21 18:18 | 55.80043 | 9.43690 | 35369 ft | 415 kts | 79° |
| 2026-04-21 18:18 | 55.80989 | 9.53762 | 35367 ft | 415 kts | 79° |
| 2026-04-21 18:19 | 55.81935 | 9.63911 | 35334 ft | 417 kts | 79° |
| 2026-04-21 18:19 | 55.82401 | 9.68962 | 35108 ft | 415 kts | 80° |
| 2026-04-21 18:19 | 55.82866 | 9.74022 | 34847 ft | 411 kts | 80° |
| 2026-04-21 18:19 | 55.83320 | 9.78970 | 34587 ft | 408 kts | 80° |
| 2026-04-21 18:20 | 55.83773 | 9.83953 | 34248 ft | 405 kts | 80° |
| 2026-04-21 18:20 | 55.84220 | 9.88872 | 33826 ft | 404 kts | 79° |
| 2026-04-21 18:20 | 55.84660 | 9.93746 | 33338 ft | 404 kts | 79° |
| 2026-04-21 18:20 | 55.85106 | 9.98704 | 32763 ft | 404 kts | 79° |
| 2026-04-21 18:21 | 55.85542 | 10.03572 | 32176 ft | 404 kts | 79° |
| 2026-04-21 18:21 | 55.85980 | 10.08491 | 31573 ft | 404 kts | 79° |
| 2026-04-21 18:21 | 55.86416 | 10.13407 | 30949 ft | 404 kts | 79° |
| 2026-04-21 18:21 | 55.86853 | 10.18352 | 30308 ft | 404 kts | 80° |
| 2026-04-21 18:22 | 55.87281 | 10.23219 | 29676 ft | 405 kts | 80° |
| 2026-04-21 18:22 | 55.87714 | 10.28168 | 28990 ft | 406 kts | 80° |
| 2026-04-21 18:22 | 55.88144 | 10.33116 | 28264 ft | 407 kts | 80° |
| 2026-04-21 18:22 | 55.88575 | 10.38108 | 27514 ft | 407 kts | 80° |
| 2026-04-21 18:23 | 55.89000 | 10.43051 | 26791 ft | 407 kts | 80° |
| 2026-04-21 18:23 | 55.89360 | 10.47995 | 26270 ft | 407 kts | 84° |
| 2026-04-21 18:23 | 55.89418 | 10.53014 | 25777 ft | 406 kts | 90° |
| 2026-04-21 18:23 | 55.89162 | 10.58022 | 25271 ft | 404 kts | 96° |
| 2026-04-21 18:24 | 55.88651 | 10.62862 | 24770 ft | 401 kts | 98° |
| 2026-04-21 18:24 | 55.88067 | 10.67752 | 24251 ft | 398 kts | 100° |
| 2026-04-21 18:24 | 55.87485 | 10.72511 | 23745 ft | 395 kts | 100° |
| 2026-04-21 18:24 | 55.86900 | 10.77287 | 23232 ft | 391 kts | 99° |
| 2026-04-21 18:25 | 55.86326 | 10.81964 | 22726 ft | 388 kts | 99° |
| 2026-04-21 18:25 | 55.85754 | 10.86624 | 22212 ft | 385 kts | 99° |
| 2026-04-21 18:25 | 55.85183 | 10.91258 | 21695 ft | 382 kts | 99° |
| 2026-04-21 18:25 | 55.84563 | 10.95777 | 21196 ft | 380 kts | 102° |
| 2026-04-21 18:26 | 55.83897 | 11.00333 | 20676 ft | 377 kts | 102° |
| 2026-04-21 18:26 | 55.83243 | 11.04774 | 20167 ft | 375 kts | 102° |
| 2026-04-21 18:26 | 55.82587 | 11.09224 | 19652 ft | 372 kts | 102° |
| 2026-04-21 18:26 | 55.81932 | 11.13650 | 19136 ft | 370 kts | 101° |
| 2026-04-21 18:27 | 55.81276 | 11.18073 | 18748 ft | 364 kts | 102° |
| 2026-04-21 18:27 | 55.80642 | 11.22338 | 18532 ft | 353 kts | 101° |
| 2026-04-21 18:27 | 55.80024 | 11.26478 | 18378 ft | 340 kts | 102° |
| 2026-04-21 18:27 | 55.79434 | 11.30419 | 18219 ft | 329 kts | 101° |
| 2026-04-21 18:28 | 55.78852 | 11.34297 | 17971 ft | 320 kts | 101° |
| 2026-04-21 18:28 | 55.78291 | 11.38027 | 17867 ft | 307 kts | 101° |
| 2026-04-21 18:28 | 55.77768 | 11.41615 | 17734 ft | 296 kts | 99° |
| 2026-04-21 18:28 | 55.77381 | 11.45149 | 17572 ft | 285 kts | 95° |
| 2026-04-21 18:29 | 55.77144 | 11.48620 | 17164 ft | 285 kts | 92° |
| 2026-04-21 18:29 | 55.76952 | 11.52088 | 16789 ft | 283 kts | 92° |
| 2026-04-21 18:29 | 55.76762 | 11.55546 | 16419 ft | 282 kts | 92° |
| 2026-04-21 18:29 | 55.76571 | 11.58979 | 16060 ft | 280 kts | 92° |
| 2026-04-21 18:30 | 55.76378 | 11.62459 | 15704 ft | 279 kts | 92° |
| 2026-04-21 18:30 | 55.76185 | 11.65901 | 15289 ft | 285 kts | 93° |
| 2026-04-21 18:30 | 55.75985 | 11.69440 | 14826 ft | 287 kts | 93° |
| 2026-04-21 18:30 | 55.75789 | 11.72866 | 14377 ft | 287 kts | 93° |
| 2026-04-21 18:31 | 55.75586 | 11.76382 | 13930 ft | 288 kts | 93° |
| 2026-04-21 18:31 | 55.75382 | 11.79900 | 13472 ft | 288 kts | 93° |
| 2026-04-21 18:31 | 55.75178 | 11.83417 | 13018 ft | 288 kts | 93° |
| 2026-04-21 18:31 | 55.74972 | 11.86943 | 12566 ft | 289 kts | 93° |
| 2026-04-21 18:32 | 55.74766 | 11.90470 | 12103 ft | 289 kts | 93° |
| 2026-04-21 18:32 | 55.74558 | 11.94010 | 11642 ft | 289 kts | 93° |
| 2026-04-21 18:32 | 55.74349 | 11.97535 | 11186 ft | 289 kts | 93° |
| 2026-04-21 18:32 | 55.74139 | 12.01046 | 10732 ft | 289 kts | 93° |
| 2026-04-21 18:33 | 55.73925 | 12.04634 | 10264 ft | 290 kts | 93° |
| 2026-04-21 18:33 | 55.73714 | 12.08145 | 9807 ft | 290 kts | 93° |
| 2026-04-21 18:33 | 55.73498 | 12.11712 | 9427 ft | 287 kts | 93° |
| 2026-04-21 18:33 | 55.73290 | 12.15127 | 9335 ft | 273 kts | 93° |
| 2026-04-21 18:34 | 55.73086 | 12.18438 | 9331 ft | 268 kts | 93° |
| 2026-04-21 18:34 | 55.72885 | 12.21717 | 9345 ft | 269 kts | 93° |
| 2026-04-21 18:34 | 55.72682 | 12.25029 | 9350 ft | 269 kts | 93° |
| 2026-04-21 18:34 | 55.72478 | 12.28342 | 9339 ft | 269 kts | 93° |
| 2026-04-21 18:35 | 55.72342 | 12.30533 | 9336 ft | 268 kts | 93° |
| 2026-04-21 18:35 | 55.72071 | 12.34869 | 9043 ft | 265 kts | 93° |
| 2026-04-21 18:35 | 55.71870 | 12.38073 | 8592 ft | 264 kts | 93° |
| 2026-04-21 18:35 | 55.71666 | 12.41303 | 8098 ft | 264 kts | 93° |
| 2026-04-21 18:36 | 55.71462 | 12.44519 | 7616 ft | 262 kts | 93° |
| 2026-04-21 18:36 | 55.71260 | 12.47714 | 7134 ft | 261 kts | 92° |
| 2026-04-21 18:36 | 55.71259 | 12.50888 | 6627 ft | 256 kts | 77° |
| 2026-04-21 18:36 | 55.71810 | 12.53816 | 6151 ft | 252 kts | 62° |
| 2026-04-21 18:37 | 55.72601 | 12.56595 | 5697 ft | 252 kts | 60° |
| 2026-04-21 18:37 | 55.73394 | 12.59318 | 5364 ft | 249 kts | 60° |
| 2026-04-21 18:37 | 55.74183 | 12.62030 | 5035 ft | 245 kts | 58° |
| 2026-04-21 18:37 | 55.75101 | 12.64445 | 4957 ft | 230 kts | 47° |
| 2026-04-21 18:38 | 55.76188 | 12.66411 | 4860 ft | 218 kts | 41° |
| 2026-04-21 18:38 | 55.77317 | 12.68182 | 4578 ft | 215 kts | 39° |
| 2026-04-21 18:38 | 55.78450 | 12.69926 | 4246 ft | 215 kts | 39° |
| 2026-04-21 18:38 | 55.79575 | 12.71663 | 3990 ft | 212 kts | 39° |
| 2026-04-21 18:39 | 55.80679 | 12.73376 | 3970 ft | 214 kts | 39° |
| 2026-04-21 18:39 | 55.81796 | 12.75113 | 3966 ft | 214 kts | 39° |
| 2026-04-21 18:39 | 55.82919 | 12.76857 | 3965 ft | 215 kts | 39° |
| 2026-04-21 18:39 | 55.84047 | 12.78618 | 3865 ft | 216 kts | 39° |
| 2026-04-21 18:40 | 55.85166 | 12.80375 | 3606 ft | 214 kts | 39° |
| 2026-04-21 18:40 | 55.86242 | 12.82221 | 3337 ft | 216 kts | 51° |
| 2026-04-21 18:40 | 55.86679 | 12.83835 | 3154 ft | 221 kts | 74° |
| 2026-04-21 18:40 | 55.86372 | 12.87433 | 2962 ft | 233 kts | 119° |
| 2026-04-21 18:41 | 55.85310 | 12.89654 | 2966 ft | 238 kts | 134° |
| 2026-04-21 18:41 | 55.83907 | 12.91157 | 2944 ft | 241 kts | 165° |
| 2026-04-21 18:41 | 55.82226 | 12.91393 | 2956 ft | 242 kts | 182° |
| 2026-04-21 18:41 | 55.80542 | 12.91209 | 2948 ft | 242 kts | 185° |
| 2026-04-21 18:42 | 55.78880 | 12.90878 | 2936 ft | 241 kts | 195° |
| 2026-04-21 18:42 | 55.77357 | 12.89738 | 2942 ft | 239 kts | 214° |
| 2026-04-21 18:42 | 55.76045 | 12.87943 | 2944 ft | 237 kts | 225° |
| 2026-04-21 18:42 | 55.74855 | 12.85929 | 2945 ft | 237 kts | 227° |
| 2026-04-21 18:43 | 55.73653 | 12.83923 | 2882 ft | 237 kts | 225° |
| 2026-04-21 18:43 | 55.72430 | 12.81995 | 2621 ft | 235 kts | 224° |
| 2026-04-21 18:43 | 55.71201 | 12.80114 | 2289 ft | 230 kts | 224° |
| 2026-04-21 18:43 | 55.70020 | 12.78312 | 2023 ft | 219 kts | 224° |
| 2026-04-21 18:44 | 55.68938 | 12.76656 | 1798 ft | 195 kts | 225° |
| 2026-04-21 18:44 | 55.67955 | 12.75140 | 1501 ft | 181 kts | 225° |
| 2026-04-21 18:44 | 55.67048 | 12.73734 | 1219 ft | 166 kts | 224° |
| 2026-04-21 18:44 | 55.66222 | 12.72455 | 975 ft | 150 kts | 224° |
| 2026-04-21 18:45 | 55.65447 | 12.71254 | 788 ft | 146 kts | 223° |
| 2026-04-21 18:45 | 55.64684 | 12.70073 | 608 ft | 145 kts | 223° |
| 2026-04-21 18:45 | 55.63933 | 12.68910 | 419 ft | 143 kts | 222° |
| 2026-04-21 18:45 | 55.63182 | 12.67742 | 227 ft | 142 kts | 222° |
| 2026-04-21 18:46 | 55.62449 | 12.66604 | 65 ft | 140 kts | 220° |
| 2026-04-21 18:46 | 55.61763 | 12.65543 | 20 ft | 108 kts | 220° |
| 2026-04-21 18:46 | 55.61376 | 12.64959 | 23 ft | 50 kts | 224° |
| 2026-04-21 18:46 | 55.61229 | 12.64503 | 24 ft | 30 kts | 251° |
| 2026-04-21 18:47 | 55.61195 | 12.64314 | 23 ft | 15 kts | 253° |
| 2026-04-21 18:47 | 55.61212 | 12.64143 | 23 ft | 14 kts | 320° |
| 2026-04-21 18:47 | 55.61308 | 12.64141 | 23 ft | 14 kts | 26° |
| 2026-04-21 18:47 | 55.61377 | 12.64233 | 23 ft | 12 kts | 36° |
| 2026-04-21 18:48 | 55.61421 | 12.64283 | 22 ft | 10 kts | 31° |
| 2026-04-21 18:48 | 55.61513 | 12.64383 | 22 ft | 10 kts | 32° |
| 2026-04-21 18:48 | 55.61608 | 12.64490 | 22 ft | 14 kts | 33° |
| 2026-04-21 18:48 | 55.61697 | 12.64591 | 22 ft | 15 kts | 34° |
| 2026-04-21 18:49 | 55.61787 | 12.64696 | 22 ft | 15 kts | 33° |
| 2026-04-21 18:49 | 55.61878 | 12.64802 | 21 ft | 15 kts | 33° |
| 2026-04-21 18:49 | 55.61940 | 12.64874 | 21 ft | 16 kts | 32° |
| 2026-04-21 18:49 | 55.62061 | 12.65029 | 21 ft | 16 kts | 44° |
| 2026-04-21 18:50 | 55.62127 | 12.65095 | 20 ft | 11 kts | 27° |
| 2026-04-21 18:50 | 55.62196 | 12.65165 | 20 ft | 12 kts | 31° |
| 2026-04-21 18:50 | 55.62277 | 12.65198 | 20 ft | 12 kts | 0° |
| 2026-04-21 18:50 | 55.62368 | 12.65192 | 19 ft | 13 kts | 358° |
| 2026-04-21 18:51 | 55.62462 | 12.65187 | 19 ft | 13 kts | 359° |
| 2026-04-21 18:51 | 55.62560 | 12.65184 | 19 ft | 14 kts | 359° |
| 2026-04-21 18:51 | 55.62647 | 12.65206 | 19 ft | 7 kts | 15° |
| 2026-04-21 18:51 | 55.62686 | 12.65161 | 19 ft | 7 kts | 287° |
| 2026-04-21 18:52 | 55.62691 | 12.65119 | 19 ft | 1 kts | 283° |
| 2026-04-21 18:52 | 55.62693 | 12.65100 | 19 ft | 0 kts | 282° |